sensor_id;sensor_type;location;lat;lon;timestamp;pressure;altitude;pressure_sealevel;temperature;humidity
14067;BME280;7108;42.684;23.350;2023-01-28T00:00:53;94740.44;;;1.25;100.00
14067;BME280;7108;42.684;23.350;2023-01-28T00:03:19;94731.88;;;1.20;100.00
14067;BME280;7108;42.684;23.350;2023-01-28T00:05:44;94720.31;;;1.07;100.00
14067;BME280;7108;42.684;23.350;2023-01-28T00:08:10;94730.75;;;1.12;100.00
14067;BME280;7108;42.684;23.350;2023-01-28T00:10:37;94740.72;;;1.07;100.00
14067;BME280;7108;42.684;23.350;2023-01-28T00:13:07;94739.19;;;1.06;100.00
14067;BME280;7108;42.684;23.350;2023-01-28T00:15:33;94723.09;;;0.94;100.00
14067;BME280;7108;42.684;23.350;2023-01-28T00:17:58;94738.84;;;0.99;100.00
14067;BME280;7108;42.684;23.350;2023-01-28T00:20:24;94759.28;;;1.07;100.00
14067;BME280;7108;42.684;23.350;2023-01-28T00:22:49;94759.16;;;1.03;100.00
14067;BME280;7108;42.684;23.350;2023-01-28T00:25:15;94749.94;;;1.01;100.00
14067;BME280;7108;42.684;23.350;2023-01-28T00:27:41;94756.78;;;1.02;100.00
14067;BME280;7108;42.684;23.350;2023-01-28T00:30:07;94741.34;;;1.04;100.00
14067;BME280;7108;42.684;23.350;2023-01-28T00:32:33;94761.78;;;1.12;100.00
14067;BME280;7108;42.684;23.350;2023-01-28T00:34:58;94768.66;;;1.13;100.00
14067;BME280;7108;42.684;23.350;2023-01-28T00:37:23;94769.00;;;1.20;100.00
14067;BME280;7108;42.684;23.350;2023-01-28T00:39:49;94753.84;;;1.03;100.00
14067;BME280;7108;42.684;23.350;2023-01-28T00:42:14;94755.56;;;1.08;100.00
14067;BME280;7108;42.684;23.350;2023-01-28T00:44:40;94766.66;;;1.10;100.00
14067;BME280;7108;42.684;23.350;2023-01-28T00:47:06;94753.69;;;1.08;100.00
14067;BME280;7108;42.684;23.350;2023-01-28T00:49:31;94771.00;;;1.23;100.00
14067;BME280;7108;42.684;23.350;2023-01-28T00:51:57;94775.22;;;1.15;100.00
14067;BME280;7108;42.684;23.350;2023-01-28T00:54:22;94774.44;;;1.15;100.00
14067;BME280;7108;42.684;23.350;2023-01-28T00:56:48;94770.22;;;1.14;100.00
14067;BME280;7108;42.684;23.350;2023-01-28T00:59:13;94773.06;;;1.17;100.00
14067;BME280;7108;42.684;23.350;2023-01-28T01:01:39;94771.16;;;1.18;100.00
14067;BME280;7108;42.684;23.350;2023-01-28T01:04:04;94768.22;;;1.19;100.00
14067;BME280;7108;42.684;23.350;2023-01-28T01:06:35;94773.38;;;1.24;100.00
14067;BME280;7108;42.684;23.350;2023-01-28T01:09:04;94778.69;;;1.24;100.00
14067;BME280;7108;42.684;23.350;2023-01-28T01:11:29;94756.19;;;1.13;100.00
14067;BME280;7108;42.684;23.350;2023-01-28T01:13:57;94781.19;;;1.21;100.00
14067;BME280;7108;42.684;23.350;2023-01-28T01:16:26;94770.41;;;1.17;100.00
14067;BME280;7108;42.684;23.350;2023-01-28T01:18:53;94778.69;;;1.24;100.00
14067;BME280;7108;42.684;23.350;2023-01-28T01:21:21;94768.34;;;1.14;100.00
14067;BME280;7108;42.684;23.350;2023-01-28T01:23:47;94768.06;;;1.16;100.00
14067;BME280;7108;42.684;23.350;2023-01-28T01:26:13;94784.59;;;1.21;100.00
14067;BME280;7108;42.684;23.350;2023-01-28T01:28:39;94786.19;;;1.30;100.00
14067;BME280;7108;42.684;23.350;2023-01-28T01:31:07;94775.56;;;1.22;100.00
14067;BME280;7108;42.684;23.350;2023-01-28T01:33:35;94780.22;;;1.25;100.00
14067;BME280;7108;42.684;23.350;2023-01-28T01:36:00;94764.59;;;1.15;100.00
14067;BME280;7108;42.684;23.350;2023-01-28T01:38:27;94779.78;;;1.23;100.00
14067;BME280;7108;42.684;23.350;2023-01-28T01:40:59;94783.03;;;1.20;100.00
14067;BME280;7108;42.684;23.350;2023-01-28T01:46:11;94779.13;;;1.18;100.00
14067;BME280;7108;42.684;23.350;2023-01-28T01:48:37;94771.16;;;1.18;100.00
14067;BME280;7108;42.684;23.350;2023-01-28T01:51:03;94794.13;;;1.22;100.00
14067;BME280;7108;42.684;23.350;2023-01-28T01:53:36;94777.09;;;1.15;100.00
14067;BME280;7108;42.684;23.350;2023-01-28T01:56:05;94788.66;;;1.19;100.00
14067;BME280;7108;42.684;23.350;2023-01-28T01:58:36;94791.63;;;1.17;100.00
14067;BME280;7108;42.684;23.350;2023-01-28T02:01:03;94786.63;;;1.16;100.00
14067;BME280;7108;42.684;23.350;2023-01-28T02:03:58;94800.69;;;1.25;100.00
14067;BME280;7108;42.684;23.350;2023-01-28T02:06:26;94794.91;;;1.23;100.00
14067;BME280;7108;42.684;23.350;2023-01-28T02:08:54;94789.56;;;1.06;100.00
14067;BME280;7108;42.684;23.350;2023-01-28T02:11:20;94780.81;;;1.05;100.00
14067;BME280;7108;42.684;23.350;2023-01-28T02:13:49;94800.97;;;1.15;100.00
14067;BME280;7108;42.684;23.350;2023-01-28T02:16:16;94803.94;;;1.13;100.00
14067;BME280;7108;42.684;23.350;2023-01-28T02:18:42;94798.00;;;1.08;100.00
14067;BME280;7108;42.684;23.350;2023-01-28T02:21:34;94806.28;;;1.15;100.00
14067;BME280;7108;42.684;23.350;2023-01-28T02:24:24;94812.66;;;1.05;100.00
14067;BME280;7108;42.684;23.350;2023-01-28T02:27:22;94807.03;;;1.07;100.00
14067;BME280;7108;42.684;23.350;2023-01-28T02:30:02;94815.63;;;1.12;100.00
14067;BME280;7108;42.684;23.350;2023-01-28T02:35:23;94812.50;;;1.10;100.00
14067;BME280;7108;42.684;23.350;2023-01-28T02:38:17;94785.16;;;0.93;100.00
14067;BME280;7108;42.684;23.350;2023-01-28T02:40:47;94795.78;;;1.01;100.00
14067;BME280;7108;42.684;23.350;2023-01-28T02:43:43;94807.81;;;1.07;100.00
14067;BME280;7108;42.684;23.350;2023-01-28T02:49:17;94797.81;;;1.04;100.00
14067;BME280;7108;42.684;23.350;2023-01-28T02:51:58;94817.84;;;1.19;100.00
14067;BME280;7108;42.684;23.350;2023-01-28T03:00:22;94817.63;;;1.07;100.00
14067;BME280;7108;42.684;23.350;2023-01-28T03:02:57;94817.34;;;1.08;100.00
14067;BME280;7108;42.684;23.350;2023-01-28T03:05:28;94814.53;;;1.05;100.00
14067;BME280;7108;42.684;23.350;2023-01-28T03:07:55;94817.00;;;1.01;100.00
14067;BME280;7108;42.684;23.350;2023-01-28T03:10:24;94795.44;;;0.86;100.00
14067;BME280;7108;42.684;23.350;2023-01-28T03:12:55;94801.06;;;0.93;100.00
14067;BME280;7108;42.684;23.350;2023-01-28T03:15:46;94823.72;;;0.99;100.00
14067;BME280;7108;42.684;23.350;2023-01-28T03:18:39;94821.38;;;0.97;100.00
14067;BME280;7108;42.684;23.350;2023-01-28T03:21:33;94823.69;;;0.90;100.00
14067;BME280;7108;42.684;23.350;2023-01-28T03:24:26;94806.34;;;0.84;100.00
14067;BME280;7108;42.684;23.350;2023-01-28T03:27:38;94831.13;;;0.80;100.00
14067;BME280;7108;42.684;23.350;2023-01-28T03:33:25;94825.94;;;0.66;100.00
14067;BME280;7108;42.684;23.350;2023-01-28T03:36:10;94812.03;;;0.61;100.00
14067;BME280;7108;42.684;23.350;2023-01-28T03:38:54;94828.28;;;0.68;100.00
14067;BME280;7108;42.684;23.350;2023-01-28T03:41:22;94830.97;;;0.76;100.00
14067;BME280;7108;42.684;23.350;2023-01-28T03:43:49;94825.63;;;0.68;100.00
14067;BME280;7108;42.684;23.350;2023-01-28T03:46:15;94838.31;;;0.88;100.00
14067;BME280;7108;42.684;23.350;2023-01-28T03:48:42;94838.28;;;0.79;100.00
14067;BME280;7108;42.684;23.350;2023-01-28T03:51:08;94837.22;;;0.80;100.00
14067;BME280;7108;42.684;23.350;2023-01-28T03:53:33;94828.78;;;0.78;100.00
14067;BME280;7108;42.684;23.350;2023-01-28T03:55:59;94815.78;;;0.68;100.00
14067;BME280;7108;42.684;23.350;2023-01-28T03:58:24;94833.78;;;0.80;100.00
14067;BME280;7108;42.684;23.350;2023-01-28T04:01:08;94805.28;;;0.55;100.00
14067;BME280;7108;42.684;23.350;2023-01-28T04:03:34;94827.66;;;0.71;100.00
14067;BME280;7108;42.684;23.350;2023-01-28T04:06:02;94813.13;;;0.68;100.00
14067;BME280;7108;42.684;23.350;2023-01-28T04:08:28;94831.50;;;0.65;100.00
14067;BME280;7108;42.684;23.350;2023-01-28T04:10:53;94853.13;;;0.80;100.00
14067;BME280;7108;42.684;23.350;2023-01-28T04:13:19;94844.22;;;0.76;100.00
14067;BME280;7108;42.684;23.350;2023-01-28T04:15:45;94861.72;;;0.86;100.00
14067;BME280;7108;42.684;23.350;2023-01-28T04:18:11;94853.44;;;0.79;100.00
14067;BME280;7108;42.684;23.350;2023-01-28T04:20:37;94837.97;;;0.72;100.00
14067;BME280;7108;42.684;23.350;2023-01-28T04:23:03;94848.09;;;0.70;100.00
14067;BME280;7108;42.684;23.350;2023-01-28T04:25:30;94829.50;;;0.62;100.00
14067;BME280;7108;42.684;23.350;2023-01-28T04:27:55;94862.47;;;0.78;100.00
14067;BME280;7108;42.684;23.350;2023-01-28T04:30:21;94845.25;;;0.67;100.00
14067;BME280;7108;42.684;23.350;2023-01-28T04:32:47;94837.25;;;0.59;100.00
14067;BME280;7108;42.684;23.350;2023-01-28T04:35:15;94858.94;;;0.61;100.00
14067;BME280;7108;42.684;23.350;2023-01-28T04:37:41;94863.50;;;0.68;100.00
14067;BME280;7108;42.684;23.350;2023-01-28T04:40:08;94870.09;;;0.79;100.00
14067;BME280;7108;42.684;23.350;2023-01-28T04:42:33;94863.75;;;0.59;100.00
14067;BME280;7108;42.684;23.350;2023-01-28T04:44:59;94880.66;;;0.71;100.00
14067;BME280;7108;42.684;23.350;2023-01-28T04:47:25;94881.59;;;0.66;100.00
14067;BME280;7108;42.684;23.350;2023-01-28T04:49:50;94879.22;;;0.65;100.00
14067;BME280;7108;42.684;23.350;2023-01-28T04:52:16;94888.47;;;0.76;100.00
14067;BME280;7108;42.684;23.350;2023-01-28T04:54:41;94875.09;;;0.72;100.00
14067;BME280;7108;42.684;23.350;2023-01-28T04:57:06;94890.84;;;0.77;100.00
14067;BME280;7108;42.684;23.350;2023-01-28T04:59:32;94877.56;;;0.69;100.00
14067;BME280;7108;42.684;23.350;2023-01-28T05:01:57;94880.47;;;0.67;100.00
14067;BME280;7108;42.684;23.350;2023-01-28T05:04:23;94893.28;;;0.65;100.00
14067;BME280;7108;42.684;23.350;2023-01-28T05:06:49;94885.84;;;0.46;100.00
14067;BME280;7108;42.684;23.350;2023-01-28T05:09:15;94854.25;;;0.27;100.00
14067;BME280;7108;42.684;23.350;2023-01-28T05:11:40;94912.28;;;0.67;100.00
14067;BME280;7108;42.684;23.350;2023-01-28T05:14:05;94905.09;;;0.60;100.00
14067;BME280;7108;42.684;23.350;2023-01-28T05:16:31;94911.53;;;0.67;100.00
14067;BME280;7108;42.684;23.350;2023-01-28T05:18:58;94922.19;;;0.75;100.00
14067;BME280;7108;42.684;23.350;2023-01-28T05:21:23;94914.59;;;0.61;100.00
14067;BME280;7108;42.684;23.350;2023-01-28T05:23:49;94911.34;;;0.63;100.00
14067;BME280;7108;42.684;23.350;2023-01-28T05:26:14;94911.53;;;0.67;100.00
14067;BME280;7108;42.684;23.350;2023-01-28T05:28:40;94910.81;;;0.53;100.00
14067;BME280;7108;42.684;23.350;2023-01-28T05:31:06;94910.69;;;0.58;100.00
14067;BME280;7108;42.684;23.350;2023-01-28T05:33:31;94897.94;;;0.38;100.00
14067;BME280;7108;42.684;23.350;2023-01-28T05:35:57;94927.84;;;0.61;100.00
14067;BME280;7108;42.684;23.350;2023-01-28T05:38:23;94904.66;;;0.44;100.00
14067;BME280;7108;42.684;23.350;2023-01-28T05:40:48;94912.28;;;0.59;100.00
14067;BME280;7108;42.684;23.350;2023-01-28T05:43:14;94890.22;;;0.50;100.00
14067;BME280;7108;42.684;23.350;2023-01-28T05:45:39;94912.47;;;0.71;100.00
14067;BME280;7108;42.684;23.350;2023-01-28T05:48:05;94928.44;;;0.79;100.00
14067;BME280;7108;42.684;23.350;2023-01-28T05:50:31;94929.69;;;0.82;100.00
14067;BME280;7108;42.684;23.350;2023-01-28T05:52:57;94927.66;;;0.79;100.00
14067;BME280;7108;42.684;23.350;2023-01-28T05:55:22;94934.56;;;0.88;100.00
14067;BME280;7108;42.684;23.350;2023-01-28T05:57:48;94917.78;;;0.71;100.00
14067;BME280;7108;42.684;23.350;2023-01-28T06:00:14;94941.63;;;0.71;100.00
14067;BME280;7108;42.684;23.350;2023-01-28T06:02:41;94941.00;;;0.65;100.00
14067;BME280;7108;42.684;23.350;2023-01-28T06:05:07;94926.78;;;0.62;100.00
14067;BME280;7108;42.684;23.350;2023-01-28T06:07:33;94943.63;;;0.65;100.00
14067;BME280;7108;42.684;23.350;2023-01-28T06:09:58;94962.56;;;0.72;100.00
14067;BME280;7108;42.684;23.350;2023-01-28T06:12:23;94958.16;;;0.68;100.00
14067;BME280;7108;42.684;23.350;2023-01-28T06:14:49;94951.72;;;0.61;100.00
14067;BME280;7108;42.684;23.350;2023-01-28T06:17:14;94963.16;;;0.69;100.00
14067;BME280;7108;42.684;23.350;2023-01-28T06:19:40;94971.41;;;0.68;100.00
14067;BME280;7108;42.684;23.350;2023-01-28T06:22:05;94965.16;;;0.64;100.00
14067;BME280;7108;42.684;23.350;2023-01-28T06:24:31;94981.56;;;0.74;100.00
14067;BME280;7108;42.684;23.350;2023-01-28T06:26:57;94980.75;;;0.65;100.00
14067;BME280;7108;42.684;23.350;2023-01-28T06:29:22;94965.28;;;0.59;100.00
14067;BME280;7108;42.684;23.350;2023-01-28T06:31:48;94965.03;;;0.47;100.00
14067;BME280;7108;42.684;23.350;2023-01-28T06:34:13;94979.91;;;0.57;100.00
14067;BME280;7108;42.684;23.350;2023-01-28T06:36:39;94988.81;;;0.61;100.00
14067;BME280;7108;42.684;23.350;2023-01-28T06:39:05;94984.41;;;0.56;100.00
14067;BME280;7108;42.684;23.350;2023-01-28T06:41:30;94980.56;;;0.62;100.00
14067;BME280;7108;42.684;23.350;2023-01-28T06:43:56;95005.13;;;0.76;100.00
14067;BME280;7108;42.684;23.350;2023-01-28T06:46:21;95013.25;;;0.79;100.00
14067;BME280;7108;42.684;23.350;2023-01-28T06:48:47;95009.53;;;0.80;100.00
14067;BME280;7108;42.684;23.350;2023-01-28T06:51:12;95005.88;;;0.68;100.00
14067;BME280;7108;42.684;23.350;2023-01-28T06:53:38;95019.13;;;0.68;100.00
14067;BME280;7108;42.684;23.350;2023-01-28T06:56:04;95003.34;;;0.63;100.00
14067;BME280;7108;42.684;23.350;2023-01-28T06:58:29;95010.94;;;0.78;100.00
14067;BME280;7108;42.684;23.350;2023-01-28T07:00:55;95002.31;;;0.72;100.00
14067;BME280;7108;42.684;23.350;2023-01-28T07:03:20;95011.66;;;0.70;100.00
14067;BME280;7108;42.684;23.350;2023-01-28T07:05:46;95013.88;;;0.76;100.00
14067;BME280;7108;42.684;23.350;2023-01-28T07:08:11;95022.16;;;0.75;100.00
14067;BME280;7108;42.684;23.350;2023-01-28T07:10:37;95012.13;;;0.72;100.00
14067;BME280;7108;42.684;23.350;2023-01-28T07:13:02;95010.84;;;0.69;100.00
14067;BME280;7108;42.684;23.350;2023-01-28T07:15:28;95038.31;;;0.73;100.00
14067;BME280;7108;42.684;23.350;2023-01-28T07:17:53;95035.22;;;0.71;100.00
14067;BME280;7108;42.684;23.350;2023-01-28T07:20:19;95042.13;;;0.81;100.00
14067;BME280;7108;42.684;23.350;2023-01-28T07:22:45;95036.66;;;0.77;100.00
14067;BME280;7108;42.684;23.350;2023-01-28T07:25:11;95038.47;;;0.90;100.00
14067;BME280;7108;42.684;23.350;2023-01-28T07:27:37;95031.63;;;0.76;100.00
14067;BME280;7108;42.684;23.350;2023-01-28T07:30:04;95059.25;;;0.97;100.00
14067;BME280;7108;42.684;23.350;2023-01-28T07:32:29;95037.94;;;0.80;100.00
14067;BME280;7108;42.684;23.350;2023-01-28T07:34:55;95039.06;;;0.87;100.00
14067;BME280;7108;42.684;23.350;2023-01-28T07:37:20;95025.13;;;0.82;100.00
14067;BME280;7108;42.684;23.350;2023-01-28T07:39:46;95060.38;;;1.04;100.00
14067;BME280;7108;42.684;23.350;2023-01-28T07:42:12;95064.50;;;1.10;100.00
14067;BME280;7108;42.684;23.350;2023-01-28T07:44:37;95062.38;;;0.99;100.00
14067;BME280;7108;42.684;23.350;2023-01-28T07:47:04;95075.03;;;1.02;100.00
14067;BME280;7108;42.684;23.350;2023-01-28T07:49:30;95074.78;;;1.12;100.00
14067;BME280;7108;42.684;23.350;2023-01-28T07:51:55;95068.13;;;0.92;100.00
14067;BME280;7108;42.684;23.350;2023-01-28T07:54:21;95067.81;;;0.94;100.00
14067;BME280;7108;42.684;23.350;2023-01-28T07:56:46;95058.09;;;0.89;100.00
14067;BME280;7108;42.684;23.350;2023-01-28T07:59:12;95078.50;;;1.02;100.00
14067;BME280;7108;42.684;23.350;2023-01-28T08:01:37;95070.34;;;0.99;100.00
14067;BME280;7108;42.684;23.350;2023-01-28T08:04:03;95080.22;;;1.07;100.00
14067;BME280;7108;42.684;23.350;2023-01-28T08:06:29;95076.50;;;1.08;100.00
14067;BME280;7108;42.684;23.350;2023-01-28T08:08:57;95060.63;;;0.94;100.00
14067;BME280;7108;42.684;23.350;2023-01-28T08:11:22;95075.78;;;0.94;100.00
14067;BME280;7108;42.684;23.350;2023-01-28T08:13:49;95066.34;;;0.88;100.00
14067;BME280;7108;42.684;23.350;2023-01-28T08:16:14;95080.00;;;0.95;100.00
14067;BME280;7108;42.684;23.350;2023-01-28T08:18:49;95095.28;;;0.98;100.00
14067;BME280;7108;42.684;23.350;2023-01-28T08:21:14;95060.81;;;0.76;100.00
14067;BME280;7108;42.684;23.350;2023-01-28T08:23:40;95078.53;;;0.89;100.00
14067;BME280;7108;42.684;23.350;2023-01-28T08:26:05;95081.59;;;1.04;100.00
14067;BME280;7108;42.684;23.350;2023-01-28T08:28:31;95102.44;;;1.11;100.00
14067;BME280;7108;42.684;23.350;2023-01-28T08:30:59;95094.53;;;1.49;100.00
14067;BME280;7108;42.684;23.350;2023-01-28T08:33:25;95102.69;;;1.53;100.00
14067;BME280;7108;42.684;23.350;2023-01-28T08:35:50;95078.31;;;1.21;100.00
14067;BME280;7108;42.684;23.350;2023-01-28T08:38:16;95074.56;;;1.22;100.00
14067;BME280;7108;42.684;23.350;2023-01-28T08:40:42;95094.75;;;1.31;100.00
14067;BME280;7108;42.684;23.350;2023-01-28T08:43:07;95083.31;;;1.22;100.00
14067;BME280;7108;42.684;23.350;2023-01-28T08:45:33;95090.88;;;1.15;100.00
14067;BME280;7108;42.684;23.350;2023-01-28T08:48:12;95096.97;;;1.37;100.00
14067;BME280;7108;42.684;23.350;2023-01-28T08:50:39;95100.66;;;1.50;100.00
14067;BME280;7108;42.684;23.350;2023-01-28T08:53:14;95095.28;;;1.41;100.00
14067;BME280;7108;42.684;23.350;2023-01-28T08:55:39;95094.31;;;1.37;100.00
14067;BME280;7108;42.684;23.350;2023-01-28T08:58:08;95107.09;;;1.57;100.00
14067;BME280;7108;42.684;23.350;2023-01-28T09:00:37;95071.41;;;1.41;100.00
14067;BME280;7108;42.684;23.350;2023-01-28T09:03:03;95110.53;;;1.36;100.00
14067;BME280;7108;42.684;23.350;2023-01-28T09:05:29;95079.13;;;1.08;100.00
14067;BME280;7108;42.684;23.350;2023-01-28T09:08:00;95109.13;;;1.08;100.00
14067;BME280;7108;42.684;23.350;2023-01-28T09:10:26;95109.41;;;1.07;100.00
14067;BME280;7108;42.684;23.350;2023-01-28T09:12:52;95111.22;;;1.20;100.00
14067;BME280;7108;42.684;23.350;2023-01-28T09:15:17;95107.00;;;1.40;100.00
14067;BME280;7108;42.684;23.350;2023-01-28T09:17:43;95102.00;;;1.39;100.00
14067;BME280;7108;42.684;23.350;2023-01-28T09:20:09;95096.00;;;1.33;100.00
14067;BME280;7108;42.684;23.350;2023-01-28T09:22:53;95106.50;;;1.38;100.00
14067;BME280;7108;42.684;23.350;2023-01-28T09:25:18;95115.06;;;1.35;100.00
14067;BME280;7108;42.684;23.350;2023-01-28T09:27:44;95089.09;;;1.24;100.00
14067;BME280;7108;42.684;23.350;2023-01-28T09:30:09;95090.00;;;1.20;100.00
14067;BME280;7108;42.684;23.350;2023-01-28T09:32:35;95101.50;;;1.15;100.00
14067;BME280;7108;42.684;23.350;2023-01-28T09:35:02;95094.88;;;1.04;100.00
14067;BME280;7108;42.684;23.350;2023-01-28T09:37:27;95100.22;;;0.91;100.00
14067;BME280;7108;42.684;23.350;2023-01-28T09:39:53;95101.22;;;0.95;100.00
14067;BME280;7108;42.684;23.350;2023-01-28T09:48:00;95111.47;;;1.10;100.00
14067;BME280;7108;42.684;23.350;2023-01-28T09:50:50;95110.72;;;1.18;100.00
14067;BME280;7108;42.684;23.350;2023-01-28T09:53:22;95105.78;;;1.25;100.00
14067;BME280;7108;42.684;23.350;2023-01-28T09:55:53;95092.59;;;1.11;100.00
14067;BME280;7108;42.684;23.350;2023-01-28T09:58:19;95095.13;;;1.16;100.00
14067;BME280;7108;42.684;23.350;2023-01-28T10:07:04;95090.56;;;1.08;100.00
14067;BME280;7108;42.684;23.350;2023-01-28T10:09:55;95099.47;;;1.12;100.00
14067;BME280;7108;42.684;23.350;2023-01-28T10:18:10;95096.75;;;1.26;100.00
14067;BME280;7108;42.684;23.350;2023-01-28T10:20:43;95108.19;;;1.34;100.00
14067;BME280;7108;42.684;23.350;2023-01-28T10:25:54;95102.56;;;1.36;100.00
14067;BME280;7108;42.684;23.350;2023-01-28T10:28:33;95102.25;;;1.29;100.00
14067;BME280;7108;42.684;23.350;2023-01-28T10:31:00;95090.69;;;1.33;100.00
14067;BME280;7108;42.684;23.350;2023-01-28T10:33:34;95102.31;;;1.16;100.00
14067;BME280;7108;42.684;23.350;2023-01-28T10:36:01;95102.25;;;1.29;100.00
14067;BME280;7108;42.684;23.350;2023-01-28T10:38:28;95104.03;;;1.20;100.00
14067;BME280;7108;42.684;23.350;2023-01-28T10:41:01;95088.19;;;1.07;100.00
14067;BME280;7108;42.684;23.350;2023-01-28T10:43:36;95076.97;;;1.10;100.00
14067;BME280;7108;42.684;23.350;2023-01-28T10:46:06;95107.47;;;1.21;100.00
14067;BME280;7108;42.684;23.350;2023-01-28T10:48:43;95106.41;;;1.22;100.00
14067;BME280;7108;42.684;23.350;2023-01-28T10:51:10;95103.06;;;1.16;100.00
14067;BME280;7108;42.684;23.350;2023-01-28T10:53:40;95093.53;;;1.15;100.00
14067;BME280;7108;42.684;23.350;2023-01-28T10:56:08;95086.19;;;1.12;100.00
14067;BME280;7108;42.684;23.350;2023-01-28T10:59:17;95084.38;;;1.21;100.00
14067;BME280;7108;42.684;23.350;2023-01-28T11:01:54;95102.31;;;1.46;100.00
14067;BME280;7108;42.684;23.350;2023-01-28T11:04:29;95098.97;;;1.54;100.00
14067;BME280;7108;42.684;23.350;2023-01-28T11:07:03;95078.81;;;1.53;100.00
14067;BME280;7108;42.684;23.350;2023-01-28T11:09:35;95098.13;;;1.45;100.00
14067;BME280;7108;42.684;23.350;2023-01-28T11:12:30;95098.13;;;1.45;100.00
14067;BME280;7108;42.684;23.350;2023-01-28T11:15:01;95102.63;;;1.44;100.00
14067;BME280;7108;42.684;23.350;2023-01-28T11:17:30;95095.84;;;1.60;100.00
14067;BME280;7108;42.684;23.350;2023-01-28T11:19:59;95097.13;;;1.63;100.00
14067;BME280;7108;42.684;23.350;2023-01-28T11:22:35;95082.44;;;1.65;100.00
14067;BME280;7108;42.684;23.350;2023-01-28T11:25:12;95087.16;;;1.68;100.00
14067;BME280;7108;42.684;23.350;2023-01-28T11:27:46;95087.91;;;1.60;100.00
14067;BME280;7108;42.684;23.350;2023-01-28T11:30:32;95091.50;;;1.64;100.00
14067;BME280;7108;42.684;23.350;2023-01-28T11:33:04;95087.53;;;1.53;100.00
14067;BME280;7108;42.684;23.350;2023-01-28T11:35:32;95081.94;;;1.55;100.00
14067;BME280;7108;42.684;23.350;2023-01-28T11:37:59;95081.69;;;1.65;100.00
14067;BME280;7108;42.684;23.350;2023-01-28T11:40:25;95060.94;;;1.75;100.00
14067;BME280;7108;42.684;23.350;2023-01-28T11:42:53;95066.44;;;1.79;100.00
14067;BME280;7108;42.684;23.350;2023-01-28T11:45:38;95089.28;;;1.88;100.00
14067;BME280;7108;42.684;23.350;2023-01-28T11:48:23;95083.31;;;1.83;100.00
14067;BME280;7108;42.684;23.350;2023-01-28T11:51:03;95072.50;;;1.71;100.00
14067;BME280;7108;42.684;23.350;2023-01-28T11:53:45;95076.09;;;1.75;100.00
14067;BME280;7108;42.684;23.350;2023-01-28T11:59:37;95070.25;;;1.94;100.00
14067;BME280;7108;42.684;23.350;2023-01-28T12:02:29;95064.72;;;1.83;100.00
14067;BME280;7108;42.684;23.350;2023-01-28T12:08:25;95075.72;;;1.98;100.00
14067;BME280;7108;42.684;23.350;2023-01-28T12:26:08;95076.47;;;1.90;100.00
14067;BME280;7108;42.684;23.350;2023-01-28T12:39:57;95090.72;;;2.02;100.00
14067;BME280;7108;42.684;23.350;2023-01-28T12:45:10;95088.81;;;1.86;100.00
14067;BME280;7108;42.684;23.350;2023-01-28T12:47:45;95088.81;;;1.86;100.00
14067;BME280;7108;42.684;23.350;2023-01-28T12:50:18;95090.38;;;1.87;100.00
14067;BME280;7108;42.684;23.350;2023-01-28T12:52:55;95095.72;;;1.95;100.00
14067;BME280;7108;42.684;23.350;2023-01-28T12:55:39;95104.81;;;2.03;100.00
14067;BME280;7108;42.684;23.350;2023-01-28T12:58:16;95079.47;;;1.97;100.00
14067;BME280;7108;42.684;23.350;2023-01-28T13:00:49;95105.31;;;2.13;100.00
14067;BME280;7108;42.684;23.350;2023-01-28T13:05:59;95088.84;;;1.94;100.00
14067;BME280;7108;42.684;23.350;2023-01-28T13:08:27;95109.31;;;2.02;100.00
14067;BME280;7108;42.684;23.350;2023-01-28T13:10:56;95115.97;;;1.83;100.00
14067;BME280;7108;42.684;23.350;2023-01-28T13:13:30;95108.19;;;1.95;100.00
14067;BME280;7108;42.684;23.350;2023-01-28T13:15:56;95107.44;;;1.94;100.00
14067;BME280;7108;42.684;23.350;2023-01-28T13:24:03;95116.25;;;1.82;100.00
14067;BME280;7108;42.684;23.350;2023-01-28T13:26:46;95120.06;;;1.89;100.00
14067;BME280;7108;42.684;23.350;2023-01-28T13:31:49;95102.47;;;1.71;100.00
14067;BME280;7108;42.684;23.350;2023-01-28T13:37:12;95120.97;;;1.85;100.00
14067;BME280;7108;42.684;23.350;2023-01-28T13:39:46;95118.38;;;1.93;100.00
14067;BME280;7108;42.684;23.350;2023-01-28T13:42:28;95136.06;;;2.06;100.00
14067;BME280;7108;42.684;23.350;2023-01-28T13:44:55;95143.03;;;1.93;100.00
14067;BME280;7108;42.684;23.350;2023-01-28T13:47:29;95119.31;;;1.67;100.00
14067;BME280;7108;42.684;23.350;2023-01-28T13:50:03;95142.19;;;1.76;100.00
14067;BME280;7108;42.684;23.350;2023-01-28T13:52:34;95118.06;;;1.64;100.00
14067;BME280;7108;42.684;23.350;2023-01-28T14:11:27;95165.00;;;1.77;100.00
14067;BME280;7108;42.684;23.350;2023-01-28T14:16:47;95171.94;;;1.87;100.00
14067;BME280;7108;42.684;23.350;2023-01-28T14:19:21;95159.22;;;1.53;100.00
14067;BME280;7108;42.684;23.350;2023-01-28T14:21:50;95156.56;;;1.31;100.00
14067;BME280;7108;42.684;23.350;2023-01-28T14:24:17;95184.47;;;1.51;100.00
14067;BME280;7108;42.684;23.350;2023-01-28T14:29:51;95189.53;;;1.52;100.00
14067;BME280;7108;42.684;23.350;2023-01-28T14:32:25;95194.97;;;1.56;100.00
14067;BME280;7108;42.684;23.350;2023-01-28T14:34:53;95184.47;;;1.51;100.00
14067;BME280;7108;42.684;23.350;2023-01-28T14:37:23;95179.19;;;1.51;100.00
14067;BME280;7108;42.684;23.350;2023-01-28T14:39:58;95196.91;;;1.42;100.00
14067;BME280;7108;42.684;23.350;2023-01-28T14:42:27;95197.41;;;1.44;100.00
14067;BME280;7108;42.684;23.350;2023-01-28T14:48:00;95207.00;;;1.53;100.00
14067;BME280;7108;42.684;23.350;2023-01-28T14:53:35;95184.44;;;1.21;100.00
14067;BME280;7108;42.684;23.350;2023-01-28T14:56:17;95206.69;;;1.33;100.00
14067;BME280;7108;42.684;23.350;2023-01-28T14:58:52;95206.69;;;1.33;100.00
14067;BME280;7108;42.684;23.350;2023-01-28T15:01:26;95191.44;;;1.17;100.00
14067;BME280;7108;42.684;23.350;2023-01-28T15:03:53;95214.00;;;1.14;100.00
14067;BME280;7108;42.684;23.350;2023-01-28T15:06:21;95212.25;;;1.10;100.00
14067;BME280;7108;42.684;23.350;2023-01-28T15:08:49;95214.31;;;1.13;100.00